Latest Weather Observations for Gosford

IDN60801

Issued at 5:02 pm EDT Wednesday 22 February 2017 (issued every 30 minutes, with the page automatically refreshed every 10 minutes)

About weather observations | Map of weather stations | Latest weather observations for NSW | Other Formats
Station Details ID: 061425 Name: GOSFORD AWS Lat: -33.44 Lon: 151.36 Height: 7.0 m
Data from the previous 72 hours. | See also: Recent months at Gosford
Date/Time
EDT
Temp
°C
App
Temp
°C
Dew
Point
°C
Rel
Hum
%
Delta-T
°C
Wind Press
QNH
hPa
Press
MSL
hPa
Rain since
9am
mm
Dir  Spd
km/h
Gust
km/h
Spd
kts
Gust
kts
22/05:00pm 25.8 23.4 16.4 56 5.8 NE 24 39 13 21 - - 0.0
22/04:30pm 26.3 24.2 16.3 54 6.2 NE 22 37 12 20 - - 0.0
22/04:00pm 26.3 24.6 16.3 54 6.2 NE 20 35 11 19 - - 0.0
22/03:30pm 27.1 25.7 17.0 54 6.3 NE 20 37 11 20 - - 0.0
22/03:00pm 27.4 25.9 17.6 55 6.2 ENE 22 33 12 18 - - 0.0
22/02:30pm 26.8 25.3 16.7 54 6.3 ENE 20 33 11 18 - - 0.0
22/02:00pm 26.5 24.2 16.7 55 6.1 ENE 24 37 13 20 - - 0.0
22/01:30pm 26.7 24.9 16.9 55 6.1 ENE 22 32 12 17 - - 0.0
22/01:00pm 27.1 26.0 17.8 56 5.9 NE 20 30 11 16 - - 0.0
22/12:30pm 26.4 25.3 17.2 57 5.7 NE 19 28 10 15 - - 0.0
22/12:00pm 26.8 26.4 18.1 59 5.5 ENE 17 28 9 15 - - 0.0
22/11:30am 26.8 26.3 17.8 57 5.7 ENE 17 24 9 13 - - 0.0
22/11:00am 26.4 26.3 16.9 56 5.9 NE 13 20 7 11 - - 0.0
22/10:30am 25.6 26.0 17.3 60 5.2 ENE 11 20 6 11 - - 0.0
22/10:00am 25.0 24.4 16.7 60 5.1 NNE 15 28 8 15 - - 0.0
22/09:30am 24.5 24.7 16.7 61 4.8 NNE 11 19 6 10 - - 0.0
22/09:00am 23.6 24.2 16.9 66 4.1 NNE 9 15 5 8 - - 0.0
22/08:30am 21.5 24.4 18.1 81 2.1 CALM 0 2 0 1 - - 0.0
22/08:00am 19.2 21.7 17.2 88 1.2 CALM 0 0 0 0 - - 0.0
22/07:30am 18.3 20.7 17.1 93 0.7 CALM 0 0 0 0 - - 0.0
22/07:00am 17.6 19.7 16.3 92 0.8 CALM 0 0 0 0 - - 0.0
22/06:30am 17.5 19.4 15.8 90 1.0 CALM 0 0 0 0 - - 0.0
22/06:00am 18.0 20.2 16.5 91 0.9 CALM 0 0 0 0 - - 0.0
22/05:30am 18.0 20.1 16.2 89 1.1 CALM 0 2 0 1 - - 0.0
22/05:00am 18.4 20.6 16.4 88 1.2 CALM 0 0 0 0 - - 0.0
22/04:30am 18.9 21.1 16.5 86 1.4 CALM 0 0 0 0 - - 0.0
22/04:00am 19.3 21.4 16.3 83 1.8 CALM 0 0 0 0 - - 0.0
22/03:30am 20.1 22.0 16.7 81 2.1 ENE 2 4 1 2 - - 0.0
22/03:00am 20.5 21.6 16.5 78 2.4 ENE 6 11 3 6 - - 0.0
22/02:30am 21.0 22.3 17.0 78 2.4 NE 6 11 3 6 - - 0.0
22/02:00am 20.1 21.2 16.7 81 2.1 ENE 6 7 3 4 - - 0.0
22/01:30am 20.1 21.3 16.9 82 1.9 ENE 6 11 3 6 - - 0.0
22/01:00am 20.6 21.7 17.0 80 2.2 ENE 7 15 4 8 - - 0.0
22/12:30am 20.9 22.0 16.7 77 2.5 ENE 6 13 3 7 - - 0.0
22/12:00am 21.3 22.4 16.7 75 2.8 ENE 6 9 3 5 - - 0.0
 
Date/Time
EDT
Temp
°C
App
Temp
°C
Dew
Point
°C
Rel
Hum
%
Delta-T
°C
Wind Press
QNH
hPa
Press
MSL
hPa
Rain since
9am
mm
Dir  Spd
km/h
Gust
km/h
Spd
kts
Gust
kts
21/11:30pm 21.7 22.7 16.4 72 3.2 ENE 6 9 3 5 - - 0.0
21/11:00pm 22.4 22.4 16.2 68 3.8 NE 11 20 6 11 - - 0.0
21/10:30pm 22.5 22.3 15.8 66 4.0 NE 11 19 6 10 - - 0.0
21/10:00pm 22.4 22.5 15.5 65 4.1 NE 9 22 5 12 - - 0.0
21/09:30pm 22.6 21.9 15.4 64 4.3 NE 13 24 7 13 - - 0.0
21/09:00pm 22.6 22.4 15.7 65 4.1 NE 11 24 6 13 - - 0.0
21/08:30pm 22.7 22.4 15.5 64 4.3 NE 11 17 6 9 - - 0.0
21/08:00pm 22.9 22.8 16.0 65 4.2 NE 11 17 6 9 - - 0.0
21/07:30pm 23.4 23.4 16.2 64 4.4 NE 11 22 6 12 - - 0.0
21/07:00pm 24.1 22.9 15.1 57 5.4 ENE 15 24 8 13 - - 0.0
21/06:30pm 24.3 22.3 15.0 56 5.6 ENE 19 28 10 15 - - 0.0
21/06:00pm 24.7 23.0 14.8 54 5.9 ENE 17 30 9 16 - - 0.0
21/05:30pm 25.2 23.3 14.3 50 6.5 ENE 17 26 9 14 - - 0.0
21/05:00pm 25.1 23.8 14.9 53 6.1 E 15 22 8 12 - - 0.0
21/04:30pm 24.8 23.7 14.3 52 6.2 ENE 13 24 7 13 - - 0.0
21/04:00pm 25.3 24.6 15.3 54 6.0 ENE 13 20 7 11 - - 0.0
21/03:30pm 25.1 23.6 14.3 51 6.4 E 15 24 8 13 - - 0.0
21/03:00pm 25.7 23.4 14.2 49 6.8 ENE 19 30 10 16 - - 0.0
21/02:30pm 26.2 24.1 13.7 46 7.4 ENE 17 28 9 15 - - 0.0
21/02:00pm 26.1 25.3 15.2 51 6.6 E 13 22 7 12 - - 0.0
21/01:30pm 24.6 23.4 14.1 52 6.2 ESE 13 24 7 13 - - 0.0
21/01:00pm 24.9 25.1 14.7 53 6.1 SE 7 19 4 10 - - 0.0
21/12:30pm 24.3 24.0 14.4 54 5.9 SE 9 17 5 9 - - 0.0
21/12:00pm 24.1 23.5 13.6 52 6.1 S 9 19 5 10 - - 0.0
21/11:30am 24.6 24.8 14.1 52 6.2 SSW 6 9 3 5 - - 0.0
21/11:00am 23.3 23.0 12.6 51 6.1 SSW 6 11 3 6 - - 0.0
21/10:30am 22.6 22.2 11.0 48 6.4 SW 4 9 2 5 - - 0.0
21/10:00am 21.2 20.1 10.1 49 6.0 WSW 6 9 3 5 - - 0.0
21/09:30am 21.1 20.3 10.9 52 5.6 SW 6 9 3 5 - - 0.0
21/09:00am 19.7 18.5 9.6 52 5.4 W 6 9 3 5 - - 0.0
21/08:30am 18.6 18.2 11.2 62 4.0 WNW 4 7 2 4 - - 0.0
21/08:00am 16.9 18.0 13.6 81 1.9 CALM 0 0 0 0 - - 0.0
21/07:30am 15.2 15.6 12.5 84 1.5 WNW 2 6 1 3 - - 0.0
21/07:00am 14.8 16.0 13.8 94 0.6 CALM 0 0 0 0 - - 0.0
21/06:30am 14.0 14.9 12.9 93 0.6 CALM 0 0 0 0 - - 0.0
21/06:00am 14.2 15.2 13.1 93 0.6 CALM 0 0 0 0 - - 0.0
21/05:30am 13.9 14.7 12.6 92 0.7 CALM 0 0 0 0 - - 0.0
21/05:00am 14.1 15.0 12.8 92 0.7 CALM 0 0 0 0 - - 0.0
21/04:30am 13.9 14.7 12.6 92 0.7 CALM 0 0 0 0 - - 0.0
21/04:00am 13.9 14.7 12.5 91 0.8 CALM 0 0 0 0 - - 0.0
21/03:30am 13.9 14.7 12.5 91 0.8 CALM 0 0 0 0 - - 0.0
21/03:00am 14.1 14.8 12.3 89 1.0 CALM 0 0 0 0 - - 0.0
21/02:30am 14.3 15.1 12.7 90 0.9 CALM 0 0 0 0 - - 0.0
21/02:00am 14.6 15.5 13.0 90 0.9 CALM 0 0 0 0 - - 0.0
21/01:30am 14.8 15.7 12.8 88 1.1 CALM 0 0 0 0 - - 0.0
21/01:00am 15.1 16.1 13.1 88 1.1 CALM 0 0 0 0 - - 0.0
21/12:30am 15.4 16.3 12.9 85 1.4 CALM 0 0 0 0 - - 0.0
21/12:00am 15.6 16.6 13.1 85 1.4 CALM 0 0 0 0 - - 0.0
 
Date/Time
EDT
Temp
°C
App
Temp
°C
Dew
Point
°C
Rel
Hum
%
Delta-T
°C
Wind Press
QNH
hPa
Press
MSL
hPa
Rain since
9am
mm
Dir  Spd
km/h
Gust
km/h
Spd
kts
Gust
kts
20/11:30pm 15.8 16.8 13.3 85 1.4 CALM 0 4 0 2 - - 0.0
20/11:00pm 16.5 17.4 12.8 79 2.1 CALM 0 0 0 0 - - 0.0
20/10:30pm 16.4 17.2 12.4 77 2.2 CALM 0 0 0 0 - - 0.0
20/10:00pm 16.6 17.2 12.0 74 2.5 CALM 0 2 0 1 - - 0.0
20/09:30pm 17.5 18.1 11.8 69 3.1 CALM 0 0 0 0 - - 0.0
20/09:00pm 18.4 18.1 11.5 64 3.8 ENE 4 4 2 2 - - 0.0
20/08:30pm 19.4 19.0 11.2 59 4.5 ENE 4 6 2 3 - - 0.0
20/08:00pm 20.6 20.5 10.7 53 5.4 NNE 2 6 1 3 - - 0.0
20/07:30pm 22.4 21.7 10.2 46 6.7 NNE 4 9 2 5 - - 0.0
20/07:00pm 23.3 21.1 9.3 41 7.6 E 11 17 6 9 - - 0.0
20/06:30pm 23.7 21.3 8.6 38 8.1 E 11 20 6 11 - - 0.0
20/06:00pm 24.1 21.6 8.1 36 8.5 ENE 11 19 6 10 - - 0.0
20/05:30pm 24.7 22.0 7.4 33 9.1 E 11 19 6 10 - - 0.0
20/05:00pm 24.5 20.7 7.6 34 8.9 E 17 26 9 14 - - 0.0
20/04:30pm 25.0 22.1 8.1 34 9.0 ENE 13 20 7 11 - - 0.0
20/04:00pm 27.3 24.1 3.1 21 12.0 WSW 9 17 5 9 - - 0.0
20/03:30pm 27.4 24.0 3.8 22 11.8 WSW 11 19 6 10 - - 0.0
20/03:00pm 26.5 21.6 1.7 20 11.9 W 17 24 9 13 - - 0.0
20/02:30pm 26.1 23.1 4.0 24 11.0 W 9 17 5 9 - - 0.0
20/02:00pm 25.5 22.4 3.5 24 10.8 WNW 9 19 5 10 - - 0.0
20/01:30pm 24.9 20.4 4.1 26 10.3 W 17 24 9 13 - - 0.0
20/01:00pm 24.6 20.9 4.4 27 10.1 WNW 13 20 7 11 - - 0.0
20/12:30pm 24.0 19.3 3.3 26 10.1 WSW 17 28 9 15 - - 0.0
20/12:00pm 23.4 19.1 5.3 31 9.1 W 17 24 9 13 - - 0.0
20/11:30am 22.9 18.8 6.2 34 8.5 W 17 24 9 13 - - 0.0
20/11:00am 21.6 15.3 5.9 36 7.9 W 28 41 15 22 - - 0.0
20/10:38am 21.3 15.2 6.8 39 7.4 W 28 50 15 27 - - 0.0
20/10:30am 21.1 15.8 6.6 39 7.3 W 24 37 13 20 - - 0.0
20/10:00am 20.8 16.8 8.1 44 6.6 W 19 28 10 15 - - 0.0
20/09:30am 19.8 15.9 8.5 48 5.9 W 19 26 10 14 - - 0.0
20/09:00am 19.4 16.3 9.0 51 5.5 W 15 24 8 13 - - 41.4
20/08:30am 18.3 16.5 9.4 56 4.7 W 9 13 5 7 - - 41.4
20/08:00am 17.0 16.4 8.9 59 4.2 W 2 7 1 4 - - 41.4
20/07:30am 15.4 16.2 12.5 83 1.6 CALM 0 6 0 3 - - 41.4
20/07:00am 14.4 13.6 9.8 74 2.4 W 4 9 2 5 - - 41.4
20/06:30am 15.5 13.9 8.7 64 3.5 W 7 9 4 5 - - 41.4
20/06:00am 15.1 13.2 9.0 67 3.1 NW 9 11 5 6 - - 41.4
20/05:30am 13.7 12.5 10.3 80 1.8 WNW 7 9 4 5 - - 41.4
20/05:00am 13.7 13.1 11.6 87 1.1 NW 6 7 3 4 - - 41.4
20/04:30am 14.2 13.9 12.8 91 0.8 WNW 6 7 3 4 - - 41.4
20/04:00am 15.4 15.9 12.9 85 1.4 W 2 4 1 2 - - 41.4
20/03:30am 15.9 16.1 13.0 83 1.6 W 4 9 2 5 - - 41.4
20/03:00am 17.6 17.2 13.1 75 2.5 WNW 7 13 4 7 - - 41.4
20/02:30am 18.6 18.0 14.7 78 2.3 WNW 11 15 6 8 - - 41.4
20/02:00am 19.5 21.2 18.5 94 0.6 WNW 7 11 4 6 - - 41.4
20/01:30am 19.7 21.7 18.7 94 0.6 WNW 6 9 3 5 - - 41.4
20/01:00am 19.6 22.0 18.8 95 0.5 W 4 6 2 3 - - 41.4
20/12:30am 19.4 21.7 18.6 95 0.5 NW 4 7 2 4 - - 41.4
20/12:00am 19.4 21.3 18.6 95 0.5 NW 6 9 3 5 - - 41.4
 
Date/Time
EDT
Temp
°C
App
Temp
°C
Dew
Point
°C
Rel
Hum
%
Delta-T
°C
Wind Press
QNH
hPa
Press
MSL
hPa
Rain since
9am
mm
Dir  Spd
km/h
Gust
km/h
Spd
kts
Gust
kts
19/11:30pm 19.2 21.1 18.5 96 0.4 W 6 9 3 5 - - 41.4
19/11:00pm 18.6 20.3 18.1 97 0.3 W 6 7 3 4 - - 41.4
19/10:30pm 17.8 19.9 17.3 97 0.3 WNW 2 4 1 2 - - 41.4
19/10:00pm 17.5 19.5 16.9 96 0.4 E 2 6 1 3 - - 41.4
19/09:30pm 17.3 18.4 16.5 95 0.5 NNE 6 7 3 4 - - 41.4
19/09:00pm 17.1 18.2 16.5 96 0.4 SW 6 11 3 6 - - 41.4
19/08:30pm 17.1 18.4 16.1 94 0.6 WNW 4 7 2 4 - - 36.6
19/08:15pm 17.0 16.6 15.2 89 1.0 NW 11 33 6 18 - - 30.4
19/08:00pm 22.0 23.6 19.2 84 1.8 SSW 9 28 5 15 - - 7.0
19/07:30pm 22.2 24.9 19.4 84 1.8 E 4 9 2 5 - - 7.0
19/07:00pm 22.5 24.2 19.3 82 2.0 E 9 15 5 8 - - 7.0
19/06:30pm 22.5 24.7 19.5 83 1.9 E 7 11 4 6 - - 7.0
19/06:00pm 22.7 24.3 19.1 80 2.3 E 9 13 5 7 - - 7.0
19/05:30pm 23.0 24.3 18.5 76 2.8 ENE 9 15 5 8 - - 7.0

Other Formats:

Comma delimited format used in spreadsheet applications
http://www.bom.gov.au/fwo/IDN60801/IDN60801.94782.axf

JavaScript Object Notation format (JSON) in row-major order
http://www.bom.gov.au/fwo/IDN60801/IDN60801.94782.json